Terminal Aerodrome Forecast
Issued by NWS Duluth, MN

Home | Current Version | Previous Version | Text Only | Print | Product List | Glossary On
Versions: 1 2 3 4 5 6 7 8 9 10 11 12 13 14 15 16 17 18 19 20 21 22
000
FTUS43 KDLH 152300 RRA
TAFINL
TAF
KINL 152340Z 1600/1624 34014G23KT P6SM OVC008
     FM160400 34017G24KT P6SM SCT012 BKN028
     FM161100 34012KT P6SM SCT015 BKN060
     FM161600 33009KT 5SM -SN BR SCT019 OVC035=

USA.gov is the U.S. government's official web portal to all federal, state and local government web resources and services.